sensor_id;sensor_type;location;lat;lon;timestamp;P1;durP1;ratioP1;P2;durP2;ratioP2
42478;SDS011;28110;47.080;9.476;2022-11-14T00:02:12;20.77;;;11.97;;
42478;SDS011;28110;47.080;9.476;2022-11-14T00:04:39;19.70;;;11.60;;
42478;SDS011;28110;47.080;9.476;2022-11-14T00:07:05;22.93;;;11.70;;
42478;SDS011;28110;47.080;9.476;2022-11-14T00:09:31;24.48;;;13.75;;
42478;SDS011;28110;47.080;9.476;2022-11-14T00:11:56;24.90;;;13.77;;
42478;SDS011;28110;47.080;9.476;2022-11-14T00:14:22;25.57;;;13.10;;
42478;SDS011;28110;47.080;9.476;2022-11-14T00:16:47;26.20;;;13.73;;
42478;SDS011;28110;47.080;9.476;2022-11-14T00:19:13;29.30;;;15.18;;
42478;SDS011;28110;47.080;9.476;2022-11-14T00:21:38;28.17;;;14.53;;
42478;SDS011;28110;47.080;9.476;2022-11-14T00:24:04;30.50;;;15.30;;
42478;SDS011;28110;47.080;9.476;2022-11-14T00:26:30;27.98;;;15.07;;
42478;SDS011;28110;47.080;9.476;2022-11-14T00:28:55;29.00;;;14.90;;
42478;SDS011;28110;47.080;9.476;2022-11-14T00:31:21;34.47;;;15.90;;
42478;SDS011;28110;47.080;9.476;2022-11-14T00:33:47;30.00;;;14.53;;
42478;SDS011;28110;47.080;9.476;2022-11-14T00:36:12;28.60;;;14.43;;
42478;SDS011;28110;47.080;9.476;2022-11-14T00:38:38;27.37;;;14.87;;
42478;SDS011;28110;47.080;9.476;2022-11-14T00:41:03;30.47;;;15.00;;
42478;SDS011;28110;47.080;9.476;2022-11-14T00:43:29;31.63;;;16.42;;
42478;SDS011;28110;47.080;9.476;2022-11-14T00:45:54;31.53;;;14.90;;
42478;SDS011;28110;47.080;9.476;2022-11-14T00:48:20;30.53;;;15.70;;
42478;SDS011;28110;47.080;9.476;2022-11-14T00:50:45;32.67;;;15.57;;
42478;SDS011;28110;47.080;9.476;2022-11-14T00:53:11;30.00;;;15.33;;
42478;SDS011;28110;47.080;9.476;2022-11-14T00:55:37;32.93;;;16.57;;
42478;SDS011;28110;47.080;9.476;2022-11-14T00:58:02;28.45;;;14.70;;
42478;SDS011;28110;47.080;9.476;2022-11-14T01:00:28;28.53;;;14.70;;
42478;SDS011;28110;47.080;9.476;2022-11-14T01:02:54;26.98;;;13.40;;
42478;SDS011;28110;47.080;9.476;2022-11-14T01:05:21;26.37;;;13.90;;
42478;SDS011;28110;47.080;9.476;2022-11-14T01:07:47;28.27;;;12.55;;
42478;SDS011;28110;47.080;9.476;2022-11-14T01:10:13;27.60;;;13.38;;
42478;SDS011;28110;47.080;9.476;2022-11-14T01:12:40;24.60;;;13.00;;
42478;SDS011;28110;47.080;9.476;2022-11-14T01:15:06;25.30;;;12.67;;
42478;SDS011;28110;47.080;9.476;2022-11-14T01:17:32;23.85;;;12.02;;
42478;SDS011;28110;47.080;9.476;2022-11-14T01:19:57;24.83;;;13.50;;
42478;SDS011;28110;47.080;9.476;2022-11-14T01:22:23;25.13;;;12.93;;
42478;SDS011;28110;47.080;9.476;2022-11-14T01:24:49;28.53;;;12.40;;
42478;SDS011;28110;47.080;9.476;2022-11-14T01:27:14;24.63;;;12.63;;
42478;SDS011;28110;47.080;9.476;2022-11-14T01:29:40;24.00;;;11.73;;
42478;SDS011;28110;47.080;9.476;2022-11-14T01:32:05;21.63;;;12.10;;
42478;SDS011;28110;47.080;9.476;2022-11-14T01:34:31;22.70;;;12.00;;
42478;SDS011;28110;47.080;9.476;2022-11-14T01:36:56;23.47;;;12.23;;
42478;SDS011;28110;47.080;9.476;2022-11-14T01:39:22;27.30;;;13.30;;
42478;SDS011;28110;47.080;9.476;2022-11-14T01:41:48;25.95;;;13.50;;
42478;SDS011;28110;47.080;9.476;2022-11-14T01:44:17;24.27;;;12.23;;
42478;SDS011;28110;47.080;9.476;2022-11-14T01:47:05;21.23;;;10.90;;
42478;SDS011;28110;47.080;9.476;2022-11-14T01:49:36;20.70;;;11.40;;
42478;SDS011;28110;47.080;9.476;2022-11-14T01:52:11;21.98;;;11.73;;
42478;SDS011;28110;47.080;9.476;2022-11-14T01:54:42;18.20;;;9.80;;
42478;SDS011;28110;47.080;9.476;2022-11-14T01:57:12;20.05;;;11.63;;
42478;SDS011;28110;47.080;9.476;2022-11-14T01:59:41;19.27;;;11.23;;
42478;SDS011;28110;47.080;9.476;2022-11-14T02:02:12;18.63;;;10.32;;
42478;SDS011;28110;47.080;9.476;2022-11-14T02:04:42;20.80;;;10.50;;
42478;SDS011;28110;47.080;9.476;2022-11-14T02:07:11;19.95;;;10.48;;
42478;SDS011;28110;47.080;9.476;2022-11-14T02:09:38;14.65;;;8.77;;
42478;SDS011;28110;47.080;9.476;2022-11-14T02:12:08;16.83;;;9.97;;
42478;SDS011;28110;47.080;9.476;2022-11-14T02:14:38;18.08;;;9.57;;
42478;SDS011;28110;47.080;9.476;2022-11-14T02:17:05;17.17;;;9.93;;
42478;SDS011;28110;47.080;9.476;2022-11-14T02:19:47;17.17;;;9.40;;
42478;SDS011;28110;47.080;9.476;2022-11-14T02:22:17;19.58;;;11.05;;
42478;SDS011;28110;47.080;9.476;2022-11-14T02:24:42;19.38;;;9.88;;
42478;SDS011;28110;47.080;9.476;2022-11-14T02:27:09;19.50;;;10.73;;
42478;SDS011;28110;47.080;9.476;2022-11-14T02:29:35;19.85;;;10.63;;
42478;SDS011;28110;47.080;9.476;2022-11-14T02:32:02;20.55;;;10.52;;
42478;SDS011;28110;47.080;9.476;2022-11-14T02:34:28;19.10;;;9.82;;
42478;SDS011;28110;47.080;9.476;2022-11-14T02:36:54;17.02;;;9.60;;
42478;SDS011;28110;47.080;9.476;2022-11-14T02:39:20;18.87;;;10.27;;
42478;SDS011;28110;47.080;9.476;2022-11-14T02:41:46;15.50;;;9.23;;
42478;SDS011;28110;47.080;9.476;2022-11-14T02:44:12;17.07;;;9.57;;
42478;SDS011;28110;47.080;9.476;2022-11-14T02:46:37;17.45;;;9.82;;
42478;SDS011;28110;47.080;9.476;2022-11-14T02:49:03;17.23;;;9.90;;
42478;SDS011;28110;47.080;9.476;2022-11-14T02:51:28;16.00;;;9.37;;
42478;SDS011;28110;47.080;9.476;2022-11-14T02:53:54;14.40;;;8.75;;
42478;SDS011;28110;47.080;9.476;2022-11-14T02:56:20;14.37;;;8.00;;
42478;SDS011;28110;47.080;9.476;2022-11-14T02:58:45;15.90;;;8.73;;
42478;SDS011;28110;47.080;9.476;2022-11-14T03:01:11;9.23;;;5.40;;
42478;SDS011;28110;47.080;9.476;2022-11-14T03:03:36;14.35;;;7.30;;
42478;SDS011;28110;47.080;9.476;2022-11-14T03:06:02;14.15;;;7.85;;
42478;SDS011;28110;47.080;9.476;2022-11-14T03:08:28;7.30;;;4.47;;
42478;SDS011;28110;47.080;9.476;2022-11-14T03:10:54;4.33;;;2.33;;
42478;SDS011;28110;47.080;9.476;2022-11-14T03:13:20;7.88;;;4.45;;
42478;SDS011;28110;47.080;9.476;2022-11-14T03:15:45;7.10;;;3.60;;
42478;SDS011;28110;47.080;9.476;2022-11-14T03:18:11;4.15;;;1.92;;
42478;SDS011;28110;47.080;9.476;2022-11-14T03:20:37;2.70;;;0.90;;
42478;SDS011;28110;47.080;9.476;2022-11-14T03:23:03;0.82;;;0.50;;
42478;SDS011;28110;47.080;9.476;2022-11-14T03:25:29;0.97;;;0.40;;
42478;SDS011;28110;47.080;9.476;2022-11-14T03:27:54;1.20;;;0.60;;
42478;SDS011;28110;47.080;9.476;2022-11-14T03:30:20;1.10;;;0.53;;
42478;SDS011;28110;47.080;9.476;2022-11-14T03:32:45;1.17;;;0.50;;
42478;SDS011;28110;47.080;9.476;2022-11-14T03:35:11;0.70;;;0.40;;
42478;SDS011;28110;47.080;9.476;2022-11-14T03:37:37;0.70;;;0.50;;
42478;SDS011;28110;47.080;9.476;2022-11-14T03:40:02;0.55;;;0.40;;
42478;SDS011;28110;47.080;9.476;2022-11-14T03:42:31;0.60;;;0.40;;
42478;SDS011;28110;47.080;9.476;2022-11-14T03:44:58;0.50;;;0.40;;
42478;SDS011;28110;47.080;9.476;2022-11-14T03:47:24;0.50;;;0.50;;
42478;SDS011;28110;47.080;9.476;2022-11-14T03:49:49;0.55;;;0.50;;
42478;SDS011;28110;47.080;9.476;2022-11-14T03:52:15;0.73;;;0.60;;
42478;SDS011;28110;47.080;9.476;2022-11-14T03:54:40;0.50;;;0.50;;
42478;SDS011;28110;47.080;9.476;2022-11-14T03:57:06;1.35;;;0.50;;
42478;SDS011;28110;47.080;9.476;2022-11-14T03:59:31;0.50;;;0.50;;
42478;SDS011;28110;47.080;9.476;2022-11-14T04:01:57;0.60;;;0.50;;
42478;SDS011;28110;47.080;9.476;2022-11-14T04:04:22;0.47;;;0.40;;
42478;SDS011;28110;47.080;9.476;2022-11-14T04:06:48;3.07;;;0.40;;
42478;SDS011;28110;47.080;9.476;2022-11-14T04:09:14;0.60;;;0.50;;
42478;SDS011;28110;47.080;9.476;2022-11-14T04:11:39;0.50;;;0.50;;
42478;SDS011;28110;47.080;9.476;2022-11-14T04:14:05;0.67;;;0.57;;
42478;SDS011;28110;47.080;9.476;2022-11-14T04:16:30;0.40;;;0.40;;
42478;SDS011;28110;47.080;9.476;2022-11-14T04:18:56;0.70;;;0.68;;
42478;SDS011;28110;47.080;9.476;2022-11-14T04:21:21;0.73;;;0.50;;
42478;SDS011;28110;47.080;9.476;2022-11-14T04:23:47;0.85;;;0.60;;
42478;SDS011;28110;47.080;9.476;2022-11-14T04:26:13;0.63;;;0.50;;
42478;SDS011;28110;47.080;9.476;2022-11-14T04:28:38;1.90;;;0.70;;
42478;SDS011;28110;47.080;9.476;2022-11-14T04:31:04;0.60;;;0.60;;
42478;SDS011;28110;47.080;9.476;2022-11-14T04:33:29;0.50;;;0.50;;
42478;SDS011;28110;47.080;9.476;2022-11-14T04:35:55;0.90;;;0.60;;
42478;SDS011;28110;47.080;9.476;2022-11-14T04:38:20;0.60;;;0.50;;
42478;SDS011;28110;47.080;9.476;2022-11-14T04:40:52;0.60;;;0.60;;
42478;SDS011;28110;47.080;9.476;2022-11-14T04:43:18;0.80;;;0.60;;
42478;SDS011;28110;47.080;9.476;2022-11-14T04:45:44;0.93;;;0.60;;
42478;SDS011;28110;47.080;9.476;2022-11-14T04:48:10;0.90;;;0.67;;
42478;SDS011;28110;47.080;9.476;2022-11-14T04:50:36;0.88;;;0.60;;
42478;SDS011;28110;47.080;9.476;2022-11-14T04:53:02;0.60;;;0.50;;
42478;SDS011;28110;47.080;9.476;2022-11-14T04:55:28;0.80;;;0.70;;
42478;SDS011;28110;47.080;9.476;2022-11-14T04:57:54;1.25;;;0.73;;
42478;SDS011;28110;47.080;9.476;2022-11-14T05:00:21;0.80;;;0.70;;
42478;SDS011;28110;47.080;9.476;2022-11-14T05:02:47;0.70;;;0.70;;
42478;SDS011;28110;47.080;9.476;2022-11-14T05:05:12;1.57;;;0.77;;
42478;SDS011;28110;47.080;9.476;2022-11-14T05:07:38;2.40;;;0.77;;
42478;SDS011;28110;47.080;9.476;2022-11-14T05:10:03;1.00;;;0.80;;
42478;SDS011;28110;47.080;9.476;2022-11-14T05:12:29;3.85;;;0.90;;
42478;SDS011;28110;47.080;9.476;2022-11-14T05:14:55;2.25;;;0.80;;
42478;SDS011;28110;47.080;9.476;2022-11-14T05:17:21;1.00;;;0.70;;
42478;SDS011;28110;47.080;9.476;2022-11-14T05:19:46;0.70;;;0.63;;
42478;SDS011;28110;47.080;9.476;2022-11-14T05:22:12;0.55;;;0.50;;
42478;SDS011;28110;47.080;9.476;2022-11-14T05:24:37;1.00;;;0.70;;
42478;SDS011;28110;47.080;9.476;2022-11-14T05:27:03;0.70;;;0.70;;
42478;SDS011;28110;47.080;9.476;2022-11-14T05:29:29;0.80;;;0.63;;
42478;SDS011;28110;47.080;9.476;2022-11-14T05:31:54;0.70;;;0.60;;
42478;SDS011;28110;47.080;9.476;2022-11-14T05:34:20;0.70;;;0.60;;
42478;SDS011;28110;47.080;9.476;2022-11-14T05:36:45;1.00;;;0.70;;
42478;SDS011;28110;47.080;9.476;2022-11-14T05:39:11;0.50;;;0.50;;
42478;SDS011;28110;47.080;9.476;2022-11-14T05:41:36;1.90;;;0.70;;
42478;SDS011;28110;47.080;9.476;2022-11-14T05:44:05;1.45;;;0.70;;
42478;SDS011;28110;47.080;9.476;2022-11-14T05:46:30;0.57;;;0.57;;
42478;SDS011;28110;47.080;9.476;2022-11-14T05:48:56;1.02;;;0.60;;
42478;SDS011;28110;47.080;9.476;2022-11-14T05:51:21;0.93;;;0.63;;
42478;SDS011;28110;47.080;9.476;2022-11-14T05:53:47;0.63;;;0.60;;
42478;SDS011;28110;47.080;9.476;2022-11-14T05:56:12;0.50;;;0.50;;
42478;SDS011;28110;47.080;9.476;2022-11-14T05:58:38;1.17;;;0.60;;
42478;SDS011;28110;47.080;9.476;2022-11-14T06:01:05;0.73;;;0.50;;
42478;SDS011;28110;47.080;9.476;2022-11-14T06:03:37;0.70;;;0.50;;
42478;SDS011;28110;47.080;9.476;2022-11-14T06:06:06;1.00;;;0.60;;
42478;SDS011;28110;47.080;9.476;2022-11-14T06:08:33;4.47;;;0.57;;
42478;SDS011;28110;47.080;9.476;2022-11-14T06:11:03;1.25;;;0.85;;
42478;SDS011;28110;47.080;9.476;2022-11-14T06:13:36;1.10;;;0.95;;
42478;SDS011;28110;47.080;9.476;2022-11-14T06:16:03;0.55;;;0.50;;
42478;SDS011;28110;47.080;9.476;2022-11-14T06:18:31;0.57;;;0.50;;
42478;SDS011;28110;47.080;9.476;2022-11-14T06:20:58;0.60;;;0.50;;
42478;SDS011;28110;47.080;9.476;2022-11-14T06:23:24;0.50;;;0.50;;
42478;SDS011;28110;47.080;9.476;2022-11-14T06:25:50;0.93;;;0.50;;
42478;SDS011;28110;47.080;9.476;2022-11-14T06:28:15;2.10;;;0.60;;
42478;SDS011;28110;47.080;9.476;2022-11-14T06:30:41;0.68;;;0.40;;
42478;SDS011;28110;47.080;9.476;2022-11-14T06:33:06;0.83;;;0.40;;
42478;SDS011;28110;47.080;9.476;2022-11-14T06:35:32;0.75;;;0.55;;
42478;SDS011;28110;47.080;9.476;2022-11-14T06:38:00;1.10;;;0.50;;
42478;SDS011;28110;47.080;9.476;2022-11-14T06:40:26;1.77;;;0.40;;
42478;SDS011;28110;47.080;9.476;2022-11-14T06:42:54;0.97;;;0.50;;
42478;SDS011;28110;47.080;9.476;2022-11-14T06:45:19;0.50;;;0.40;;
42478;SDS011;28110;47.080;9.476;2022-11-14T06:47:45;1.10;;;0.50;;
42478;SDS011;28110;47.080;9.476;2022-11-14T06:50:11;0.40;;;0.40;;
42478;SDS011;28110;47.080;9.476;2022-11-14T06:52:36;0.90;;;0.50;;
42478;SDS011;28110;47.080;9.476;2022-11-14T06:55:02;1.10;;;0.50;;
42478;SDS011;28110;47.080;9.476;2022-11-14T06:57:27;1.75;;;0.47;;
42478;SDS011;28110;47.080;9.476;2022-11-14T06:59:53;1.30;;;0.40;;
42478;SDS011;28110;47.080;9.476;2022-11-14T07:02:18;1.90;;;0.53;;
42478;SDS011;28110;47.080;9.476;2022-11-14T07:04:44;1.10;;;0.60;;
42478;SDS011;28110;47.080;9.476;2022-11-14T07:07:09;1.30;;;1.15;;
42478;SDS011;28110;47.080;9.476;2022-11-14T07:09:35;1.80;;;0.80;;
42478;SDS011;28110;47.080;9.476;2022-11-14T07:12:00;0.73;;;0.47;;
42478;SDS011;28110;47.080;9.476;2022-11-14T07:14:26;1.17;;;0.50;;
42478;SDS011;28110;47.080;9.476;2022-11-14T07:16:52;0.80;;;0.60;;
42478;SDS011;28110;47.080;9.476;2022-11-14T07:19:18;1.33;;;0.55;;
42478;SDS011;28110;47.080;9.476;2022-11-14T07:21:43;1.87;;;0.70;;
42478;SDS011;28110;47.080;9.476;2022-11-14T07:24:09;0.60;;;0.60;;
42478;SDS011;28110;47.080;9.476;2022-11-14T07:26:35;1.05;;;0.50;;
42478;SDS011;28110;47.080;9.476;2022-11-14T07:29:00;1.50;;;0.60;;
42478;SDS011;28110;47.080;9.476;2022-11-14T07:31:26;2.60;;;0.50;;
42478;SDS011;28110;47.080;9.476;2022-11-14T07:33:51;3.45;;;0.50;;
42478;SDS011;28110;47.080;9.476;2022-11-14T07:36:18;1.30;;;0.70;;
42478;SDS011;28110;47.080;9.476;2022-11-14T07:38:43;0.70;;;0.43;;
42478;SDS011;28110;47.080;9.476;2022-11-14T07:41:10;1.80;;;0.60;;
42478;SDS011;28110;47.080;9.476;2022-11-14T07:43:37;1.05;;;0.60;;
42478;SDS011;28110;47.080;9.476;2022-11-14T07:46:04;1.48;;;0.50;;
42478;SDS011;28110;47.080;9.476;2022-11-14T07:48:32;2.08;;;0.50;;
42478;SDS011;28110;47.080;9.476;2022-11-14T07:51:01;0.50;;;0.50;;
42478;SDS011;28110;47.080;9.476;2022-11-14T07:53:28;1.40;;;0.60;;
42478;SDS011;28110;47.080;9.476;2022-11-14T07:55:54;0.40;;;0.40;;
42478;SDS011;28110;47.080;9.476;2022-11-14T07:58:21;0.70;;;0.40;;
42478;SDS011;28110;47.080;9.476;2022-11-14T08:00:46;0.55;;;0.40;;
42478;SDS011;28110;47.080;9.476;2022-11-14T08:03:12;0.67;;;0.50;;
42478;SDS011;28110;47.080;9.476;2022-11-14T08:05:38;0.40;;;0.40;;
42478;SDS011;28110;47.080;9.476;2022-11-14T08:08:03;0.47;;;0.40;;
42478;SDS011;28110;47.080;9.476;2022-11-14T08:10:29;1.30;;;0.63;;
42478;SDS011;28110;47.080;9.476;2022-11-14T08:12:58;1.57;;;0.50;;
42478;SDS011;28110;47.080;9.476;2022-11-14T08:15:25;0.60;;;0.40;;
42478;SDS011;28110;47.080;9.476;2022-11-14T08:17:51;0.95;;;0.40;;
42478;SDS011;28110;47.080;9.476;2022-11-14T08:20:21;0.37;;;0.37;;
42478;SDS011;28110;47.080;9.476;2022-11-14T08:22:46;0.60;;;0.40;;
42478;SDS011;28110;47.080;9.476;2022-11-14T08:25:12;0.57;;;0.57;;
42478;SDS011;28110;47.080;9.476;2022-11-14T08:27:37;0.75;;;0.57;;
42478;SDS011;28110;47.080;9.476;2022-11-14T08:30:03;0.73;;;0.50;;
42478;SDS011;28110;47.080;9.476;2022-11-14T08:32:29;0.70;;;0.50;;
42478;SDS011;28110;47.080;9.476;2022-11-14T08:34:54;1.10;;;0.60;;
42478;SDS011;28110;47.080;9.476;2022-11-14T08:37:20;1.63;;;0.90;;
42478;SDS011;28110;47.080;9.476;2022-11-14T08:39:45;2.50;;;0.43;;
42478;SDS011;28110;47.080;9.476;2022-11-14T08:42:11;0.67;;;0.50;;
42478;SDS011;28110;47.080;9.476;2022-11-14T08:44:36;0.50;;;0.50;;
42478;SDS011;28110;47.080;9.476;2022-11-14T08:47:02;2.58;;;0.50;;
42478;SDS011;28110;47.080;9.476;2022-11-14T08:49:28;1.63;;;0.70;;
42478;SDS011;28110;47.080;9.476;2022-11-14T08:51:53;0.40;;;0.40;;
42478;SDS011;28110;47.080;9.476;2022-11-14T08:54:19;0.67;;;0.67;;
42478;SDS011;28110;47.080;9.476;2022-11-14T08:56:45;0.50;;;0.50;;
42478;SDS011;28110;47.080;9.476;2022-11-14T08:59:10;1.27;;;0.63;;
42478;SDS011;28110;47.080;9.476;2022-11-14T09:01:36;2.03;;;0.60;;
42478;SDS011;28110;47.080;9.476;2022-11-14T09:04:01;3.00;;;0.60;;
42478;SDS011;28110;47.080;9.476;2022-11-14T09:06:27;0.83;;;0.70;;
42478;SDS011;28110;47.080;9.476;2022-11-14T09:08:53;1.57;;;0.50;;
42478;SDS011;28110;47.080;9.476;2022-11-14T09:11:18;0.40;;;0.40;;
42478;SDS011;28110;47.080;9.476;2022-11-14T09:13:44;0.50;;;0.50;;
42478;SDS011;28110;47.080;9.476;2022-11-14T09:16:09;0.55;;;0.52;;
42478;SDS011;28110;47.080;9.476;2022-11-14T09:18:35;1.93;;;0.40;;
42478;SDS011;28110;47.080;9.476;2022-11-14T09:21:02;1.17;;;0.50;;
42478;SDS011;28110;47.080;9.476;2022-11-14T09:23:28;1.05;;;0.60;;
42478;SDS011;28110;47.080;9.476;2022-11-14T09:25:54;0.50;;;0.50;;
42478;SDS011;28110;47.080;9.476;2022-11-14T09:28:21;0.70;;;0.50;;
42478;SDS011;28110;47.080;9.476;2022-11-14T09:30:47;2.90;;;0.70;;
42478;SDS011;28110;47.080;9.476;2022-11-14T09:33:13;0.80;;;0.70;;
42478;SDS011;28110;47.080;9.476;2022-11-14T09:35:38;0.60;;;0.60;;
42478;SDS011;28110;47.080;9.476;2022-11-14T09:38:06;0.65;;;0.50;;
42478;SDS011;28110;47.080;9.476;2022-11-14T09:43:38;1.83;;;0.60;;
42478;SDS011;28110;47.080;9.476;2022-11-14T09:46:18;3.75;;;0.70;;
42478;SDS011;28110;47.080;9.476;2022-11-14T09:48:51;1.07;;;0.50;;
42478;SDS011;28110;47.080;9.476;2022-11-14T09:51:42;1.35;;;0.40;;
42478;SDS011;28110;47.080;9.476;2022-11-14T09:54:17;0.68;;;0.60;;
42478;SDS011;28110;47.080;9.476;2022-11-14T09:56:49;0.57;;;0.52;;
42478;SDS011;28110;47.080;9.476;2022-11-14T09:59:15;2.80;;;0.50;;
42478;SDS011;28110;47.080;9.476;2022-11-14T10:04:59;1.48;;;0.40;;
42478;SDS011;28110;47.080;9.476;2022-11-14T10:13:12;3.83;;;0.60;;
42478;SDS011;28110;47.080;9.476;2022-11-14T10:18:36;2.50;;;0.60;;
42478;SDS011;28110;47.080;9.476;2022-11-14T10:21:29;0.40;;;0.40;;
42478;SDS011;28110;47.080;9.476;2022-11-14T10:27:02;0.73;;;0.30;;
42478;SDS011;28110;47.080;9.476;2022-11-14T10:32:04;0.80;;;0.40;;
42478;SDS011;28110;47.080;9.476;2022-11-14T10:34:58;0.63;;;0.52;;
42478;SDS011;28110;47.080;9.476;2022-11-14T10:37:36;2.08;;;0.40;;
42478;SDS011;28110;47.080;9.476;2022-11-14T10:40:24;0.75;;;0.30;;
42478;SDS011;28110;47.080;9.476;2022-11-14T10:42:59;0.40;;;0.40;;
42478;SDS011;28110;47.080;9.476;2022-11-14T10:45:31;0.30;;;0.30;;
42478;SDS011;28110;47.080;9.476;2022-11-14T10:48:00;1.73;;;0.40;;
42478;SDS011;28110;47.080;9.476;2022-11-14T10:51:03;0.60;;;0.40;;
42478;SDS011;28110;47.080;9.476;2022-11-14T10:56:09;0.35;;;0.35;;
42478;SDS011;28110;47.080;9.476;2022-11-14T10:58:39;0.40;;;0.37;;
42478;SDS011;28110;47.080;9.476;2022-11-14T11:09:39;1.30;;;0.40;;
42478;SDS011;28110;47.080;9.476;2022-11-14T11:15:15;0.28;;;0.28;;
42478;SDS011;28110;47.080;9.476;2022-11-14T11:17:53;2.28;;;0.47;;
42478;SDS011;28110;47.080;9.476;2022-11-14T11:20:26;0.40;;;0.40;;
42478;SDS011;28110;47.080;9.476;2022-11-14T11:23:27;1.58;;;0.40;;
42478;SDS011;28110;47.080;9.476;2022-11-14T11:25:52;0.33;;;0.33;;
42478;SDS011;28110;47.080;9.476;2022-11-14T11:28:33;0.77;;;0.30;;
42478;SDS011;28110;47.080;9.476;2022-11-14T11:31:01;2.97;;;0.63;;
42478;SDS011;28110;47.080;9.476;2022-11-14T11:33:28;0.47;;;0.40;;
42478;SDS011;28110;47.080;9.476;2022-11-14T11:35:55;0.47;;;0.40;;
42478;SDS011;28110;47.080;9.476;2022-11-14T11:38:27;0.30;;;0.30;;
42478;SDS011;28110;47.080;9.476;2022-11-14T11:41:00;1.00;;;0.40;;
42478;SDS011;28110;47.080;9.476;2022-11-14T11:46:18;0.40;;;0.40;;
42478;SDS011;28110;47.080;9.476;2022-11-14T11:48:50;0.40;;;0.40;;
42478;SDS011;28110;47.080;9.476;2022-11-14T11:51:26;0.50;;;0.40;;
42478;SDS011;28110;47.080;9.476;2022-11-14T11:56:38;1.48;;;0.50;;
42478;SDS011;28110;47.080;9.476;2022-11-14T12:01:50;1.35;;;0.50;;
42478;SDS011;28110;47.080;9.476;2022-11-14T12:04:16;0.50;;;0.37;;
42478;SDS011;28110;47.080;9.476;2022-11-14T12:06:45;2.20;;;0.47;;
42478;SDS011;28110;47.080;9.476;2022-11-14T12:09:21;1.07;;;0.40;;
42478;SDS011;28110;47.080;9.476;2022-11-14T12:11:55;0.40;;;0.40;;
42478;SDS011;28110;47.080;9.476;2022-11-14T12:14:47;1.02;;;0.40;;
42478;SDS011;28110;47.080;9.476;2022-11-14T12:20:51;0.50;;;0.43;;
42478;SDS011;28110;47.080;9.476;2022-11-14T12:29:30;0.40;;;0.40;;
42478;SDS011;28110;47.080;9.476;2022-11-14T12:32:14;1.10;;;0.40;;
42478;SDS011;28110;47.080;9.476;2022-11-14T12:34:56;0.40;;;0.40;;
42478;SDS011;28110;47.080;9.476;2022-11-14T12:37:31;0.40;;;0.40;;
42478;SDS011;28110;47.080;9.476;2022-11-14T12:40:06;0.47;;;0.47;;
42478;SDS011;28110;47.080;9.476;2022-11-14T12:42:45;0.40;;;0.40;;
42478;SDS011;28110;47.080;9.476;2022-11-14T12:48:14;0.40;;;0.40;;
42478;SDS011;28110;47.080;9.476;2022-11-14T12:50:51;0.40;;;0.40;;
42478;SDS011;28110;47.080;9.476;2022-11-14T13:09:53;0.60;;;0.60;;
42478;SDS011;28110;47.080;9.476;2022-11-14T13:12:42;1.33;;;0.40;;
42478;SDS011;28110;47.080;9.476;2022-11-14T13:18:31;0.40;;;0.40;;
42478;SDS011;28110;47.080;9.476;2022-11-14T13:21:18;0.30;;;0.30;;
42478;SDS011;28110;47.080;9.476;2022-11-14T13:24:10;0.40;;;0.40;;
42478;SDS011;28110;47.080;9.476;2022-11-14T13:26:41;0.40;;;0.40;;
42478;SDS011;28110;47.080;9.476;2022-11-14T13:32:10;1.03;;;0.33;;
42478;SDS011;28110;47.080;9.476;2022-11-14T13:34:44;0.40;;;0.40;;
42478;SDS011;28110;47.080;9.476;2022-11-14T13:43:04;2.42;;;0.40;;
42478;SDS011;28110;47.080;9.476;2022-11-14T13:48:27;0.50;;;0.30;;
42478;SDS011;28110;47.080;9.476;2022-11-14T13:51:15;0.52;;;0.47;;
42478;SDS011;28110;47.080;9.476;2022-11-14T13:53:41;0.40;;;0.40;;
42478;SDS011;28110;47.080;9.476;2022-11-14T13:56:24;3.13;;;0.50;;
42478;SDS011;28110;47.080;9.476;2022-11-14T13:59:27;0.30;;;0.30;;
42478;SDS011;28110;47.080;9.476;2022-11-14T14:04:46;0.45;;;0.40;;
42478;SDS011;28110;47.080;9.476;2022-11-14T14:07:29;0.30;;;0.30;;
42478;SDS011;28110;47.080;9.476;2022-11-14T14:12:56;0.70;;;0.40;;
42478;SDS011;28110;47.080;9.476;2022-11-14T14:15:42;1.25;;;0.30;;
42478;SDS011;28110;47.080;9.476;2022-11-14T14:21:15;0.30;;;0.30;;
42478;SDS011;28110;47.080;9.476;2022-11-14T14:23:53;0.40;;;0.40;;
42478;SDS011;28110;47.080;9.476;2022-11-14T14:29:19;0.88;;;0.30;;
42478;SDS011;28110;47.080;9.476;2022-11-14T14:31:49;0.40;;;0.40;;
42478;SDS011;28110;47.080;9.476;2022-11-14T14:34:48;0.43;;;0.35;;
42478;SDS011;28110;47.080;9.476;2022-11-14T14:37:17;0.50;;;0.45;;
42478;SDS011;28110;47.080;9.476;2022-11-14T14:40:06;0.30;;;0.30;;
42478;SDS011;28110;47.080;9.476;2022-11-14T14:42:46;0.50;;;0.50;;
42478;SDS011;28110;47.080;9.476;2022-11-14T14:45:14;1.60;;;0.40;;
42478;SDS011;28110;47.080;9.476;2022-11-14T14:47:42;0.30;;;0.30;;
42478;SDS011;28110;47.080;9.476;2022-11-14T14:52:43;2.05;;;0.60;;
42478;SDS011;28110;47.080;9.476;2022-11-14T14:55:21;1.27;;;0.50;;
42478;SDS011;28110;47.080;9.476;2022-11-14T14:57:52;0.40;;;0.40;;
42478;SDS011;28110;47.080;9.476;2022-11-14T15:00:22;0.40;;;0.40;;
42478;SDS011;28110;47.080;9.476;2022-11-14T15:02:53;0.40;;;0.40;;
42478;SDS011;28110;47.080;9.476;2022-11-14T15:05:24;0.37;;;0.37;;
42478;SDS011;28110;47.080;9.476;2022-11-14T15:07:52;0.40;;;0.40;;
42478;SDS011;28110;47.080;9.476;2022-11-14T15:10:21;0.65;;;0.40;;
42478;SDS011;28110;47.080;9.476;2022-11-14T15:12:50;0.68;;;0.40;;
42478;SDS011;28110;47.080;9.476;2022-11-14T15:15:17;0.47;;;0.40;;
42478;SDS011;28110;47.080;9.476;2022-11-14T15:17:44;0.40;;;0.40;;
42478;SDS011;28110;47.080;9.476;2022-11-14T15:20:26;0.52;;;0.40;;
42478;SDS011;28110;47.080;9.476;2022-11-14T15:23:03;1.17;;;0.45;;
42478;SDS011;28110;47.080;9.476;2022-11-14T15:25:29;1.13;;;0.40;;
42478;SDS011;28110;47.080;9.476;2022-11-14T15:27:55;1.80;;;0.60;;
42478;SDS011;28110;47.080;9.476;2022-11-14T15:30:25;0.40;;;0.40;;
42478;SDS011;28110;47.080;9.476;2022-11-14T15:32:56;0.40;;;0.40;;
42478;SDS011;28110;47.080;9.476;2022-11-14T15:35:27;0.40;;;0.40;;
42478;SDS011;28110;47.080;9.476;2022-11-14T15:38:16;0.43;;;0.40;;
42478;SDS011;28110;47.080;9.476;2022-11-14T15:41:07;1.20;;;0.50;;
42478;SDS011;28110;47.080;9.476;2022-11-14T15:51:38;3.53;;;0.80;;
42478;SDS011;28110;47.080;9.476;2022-11-14T15:54:18;3.33;;;0.80;;
42478;SDS011;28110;47.080;9.476;2022-11-14T15:56:46;0.75;;;0.50;;
42478;SDS011;28110;47.080;9.476;2022-11-14T15:59:12;0.80;;;0.50;;
42478;SDS011;28110;47.080;9.476;2022-11-14T16:01:38;1.63;;;0.40;;
42478;SDS011;28110;47.080;9.476;2022-11-14T16:04:03;0.30;;;0.30;;
42478;SDS011;28110;47.080;9.476;2022-11-14T16:06:29;0.50;;;0.40;;
42478;SDS011;28110;47.080;9.476;2022-11-14T16:08:56;1.30;;;0.40;;
42478;SDS011;28110;47.080;9.476;2022-11-14T16:11:22;2.60;;;0.40;;
42478;SDS011;28110;47.080;9.476;2022-11-14T16:13:47;0.47;;;0.47;;
42478;SDS011;28110;47.080;9.476;2022-11-14T16:16:13;0.67;;;0.40;;
42478;SDS011;28110;47.080;9.476;2022-11-14T16:18:38;1.27;;;0.50;;
42478;SDS011;28110;47.080;9.476;2022-11-14T16:21:04;6.10;;;0.50;;
42478;SDS011;28110;47.080;9.476;2022-11-14T16:23:29;5.90;;;0.50;;
42478;SDS011;28110;47.080;9.476;2022-11-14T16:25:55;2.30;;;0.50;;
42478;SDS011;28110;47.080;9.476;2022-11-14T16:28:20;0.60;;;0.60;;
42478;SDS011;28110;47.080;9.476;2022-11-14T16:30:46;0.30;;;0.30;;
42478;SDS011;28110;47.080;9.476;2022-11-14T16:33:11;2.30;;;0.93;;
42478;SDS011;28110;47.080;9.476;2022-11-14T16:35:37;10.07;;;2.10;;
42478;SDS011;28110;47.080;9.476;2022-11-14T16:38:02;2.83;;;0.50;;
42478;SDS011;28110;47.080;9.476;2022-11-14T16:40:28;0.63;;;0.37;;
42478;SDS011;28110;47.080;9.476;2022-11-14T16:42:54;0.77;;;0.50;;